createdAt,value
2022-10-30T00:02:21.773Z,98826.92
2022-10-30T00:04:48.463Z,98819.55
2022-10-30T00:07:15.001Z,98815.35
2022-10-30T00:09:41.545Z,98817.81
2022-10-30T00:12:08.183Z,98815.45
2022-10-30T00:14:34.726Z,98824.65
2022-10-30T00:17:01.142Z,98830.38
2022-10-30T00:19:27.811Z,98831.23
2022-10-30T00:21:54.243Z,98833.55
2022-10-30T00:24:20.683Z,98836.79
2022-10-30T00:26:47.148Z,98836.68
2022-10-30T00:29:13.588Z,98838.64
2022-10-30T00:31:40.114Z,98837.29
2022-10-30T00:34:06.637Z,98836.80
2022-10-30T00:36:33.112Z,98833.20
2022-10-30T00:38:59.644Z,98828.56
2022-10-30T00:41:26.161Z,98826.19
2022-10-30T00:43:53.252Z,98825.84
2022-10-30T00:46:39.717Z,98825.39
2022-10-30T00:49:12.553Z,98821.73
2022-10-30T00:51:46.353Z,98815.56
2022-10-30T00:54:16.397Z,98814.80
2022-10-30T00:56:44.721Z,98819.00
2022-10-30T00:59:17.025Z,98823.02
2022-10-30T01:01:46.379Z,98821.86
2022-10-30T01:04:14.392Z,98813.91
2022-10-30T01:06:45.042Z,98815.81
2022-10-30T01:09:11.573Z,98817.35
2022-10-30T01:11:38.086Z,98827.85
2022-10-30T01:14:07.284Z,98829.85
2022-10-30T01:16:50.619Z,98830.87
2022-10-30T01:19:52.678Z,98829.92
2022-10-30T01:22:26.469Z,98830.46
2022-10-30T01:25:11.783Z,98828.82
2022-10-30T01:28:16.418Z,98833.05
2022-10-30T01:30:58.320Z,98834.91
2022-10-30T01:33:46.675Z,98834.88
2022-10-30T01:36:22.430Z,98828.38
2022-10-30T01:39:00.032Z,98825.27
2022-10-30T01:41:26.965Z,98821.82
2022-10-30T01:43:58.540Z,98825.23
2022-10-30T01:46:30.913Z,98828.44
2022-10-30T01:49:38.538Z,98830.73
2022-10-30T01:52:26.161Z,98819.52
2022-10-30T01:55:20.867Z,98818.50
2022-10-30T01:58:15.667Z,98825.67
2022-10-30T02:00:45.494Z,98823.02
2022-10-30T02:03:12.753Z,98815.72
2022-10-30T02:05:44.089Z,98803.02
2022-10-30T02:08:10.732Z,98794.68
2022-10-30T02:10:38.403Z,98808.06
2022-10-30T02:13:05.688Z,98822.44
2022-10-30T02:15:32.901Z,98819.71
2022-10-30T02:18:00.013Z,98817.52
2022-10-30T02:20:27.107Z,98818.42
2022-10-30T02:22:58.022Z,98819.83
2022-10-30T02:25:25.926Z,98812.27
2022-10-30T02:27:52.670Z,98815.83
2022-10-30T02:30:19.311Z,98821.23
2022-10-30T02:32:45.975Z,98820.41
2022-10-30T02:35:12.545Z,98810.19
2022-10-30T02:37:39.231Z,98808.61
2022-10-30T02:40:06.778Z,98813.29
2022-10-30T02:42:33.335Z,98814.38
2022-10-30T02:44:59.735Z,98806.41
2022-10-30T02:47:26.517Z,98800.17
2022-10-30T02:49:52.979Z,98804.50
2022-10-30T02:52:19.450Z,98801.73
2022-10-30T02:54:45.933Z,98801.82
2022-10-30T02:57:12.471Z,98797.08
2022-10-30T02:59:39.018Z,98792.14
2022-10-30T03:02:05.517Z,98789.73
2022-10-30T03:04:32.082Z,98792.89
2022-10-30T03:06:58.630Z,98794.34
2022-10-30T03:09:25.177Z,98796.98
2022-10-30T03:11:51.709Z,98794.02
2022-10-30T03:14:18.250Z,98785.46
2022-10-30T03:16:44.787Z,98790.03
2022-10-30T03:19:11.335Z,98795.80
2022-10-30T03:21:39.685Z,98800.89
2022-10-30T03:24:06.353Z,98803.94
2022-10-30T03:26:32.818Z,98812.33
2022-10-30T03:28:59.346Z,98815.23
2022-10-30T03:31:25.978Z,98823.12
2022-10-30T03:33:52.519Z,98819.23
2022-10-30T03:36:18.954Z,98822.73
2022-10-30T03:38:45.413Z,98818.34
2022-10-30T03:41:11.870Z,98813.80
2022-10-30T03:43:38.380Z,98811.69
2022-10-30T03:46:05.018Z,98810.36
2022-10-30T03:48:31.477Z,98814.02
2022-10-30T03:50:59.633Z,98817.23
2022-10-30T03:53:27.618Z,98816.56
2022-10-30T03:55:58.656Z,98818.46
2022-10-30T03:58:25.916Z,98811.91
2022-10-30T04:00:52.645Z,98809.58
2022-10-30T04:03:19.284Z,98813.31
2022-10-30T04:05:45.923Z,98808.08
2022-10-30T04:08:14.399Z,98804.55
2022-10-30T04:10:46.441Z,98799.86
2022-10-30T04:13:15.884Z,98792.08
2022-10-30T04:15:43.040Z,98792.77
2022-10-30T04:18:11.985Z,98791.88
2022-10-30T04:20:39.009Z,98797.59
2022-10-30T04:23:07.532Z,98799.52
2022-10-30T04:25:35.536Z,98800.77
2022-10-30T04:28:03.008Z,98800.87
2022-10-30T04:30:29.957Z,98792.02
2022-10-30T04:32:58.018Z,98791.98
2022-10-30T04:35:26.939Z,98784.46
2022-10-30T04:37:55.550Z,98781.27
2022-10-30T04:40:24.275Z,98775.20
2022-10-30T04:42:51.750Z,98775.64
2022-10-30T04:45:18.824Z,98784.45
2022-10-30T04:47:46.125Z,98785.53
2022-10-30T04:50:13.967Z,98779.60
2022-10-30T04:52:41.122Z,98781.23
2022-10-30T04:55:09.837Z,98778.99
2022-10-30T04:57:37.159Z,98781.04
2022-10-30T05:00:08.252Z,98782.02
2022-10-30T05:02:36.251Z,98786.80
2022-10-30T05:05:04.251Z,98779.33
2022-10-30T05:07:30.997Z,98780.05
2022-10-30T05:09:57.536Z,98781.66
2022-10-30T05:12:24.073Z,98773.22
2022-10-30T05:14:50.613Z,98779.80
2022-10-30T05:17:17.207Z,98780.74
2022-10-30T05:19:43.748Z,98781.52
2022-10-30T05:22:10.235Z,98783.53
2022-10-30T05:24:36.701Z,98781.64
2022-10-30T05:27:03.212Z,98781.52
2022-10-30T05:29:29.750Z,98783.66
2022-10-30T05:31:56.291Z,98789.91
2022-10-30T05:34:22.830Z,98791.34
2022-10-30T05:36:49.303Z,98789.78
2022-10-30T05:39:15.805Z,98792.73
2022-10-30T05:41:42.234Z,98791.67
2022-10-30T05:44:08.675Z,98791.50
2022-10-30T05:46:35.313Z,98785.94
2022-10-30T05:49:01.855Z,98790.84
2022-10-30T05:51:28.265Z,98798.52
2022-10-30T05:53:54.840Z,98799.62
2022-10-30T05:56:21.376Z,98798.31
2022-10-30T05:58:51.086Z,98800.23
2022-10-30T06:01:17.874Z,98797.17
2022-10-30T06:03:45.087Z,98799.99
2022-10-30T06:06:12.139Z,98798.68
2022-10-30T06:08:38.930Z,98795.84
2022-10-30T06:11:05.398Z,98798.47
2022-10-30T06:13:31.971Z,98800.20
2022-10-30T06:15:58.500Z,98793.94
2022-10-30T06:18:25.043Z,98791.38
2022-10-30T06:20:51.582Z,98791.80
2022-10-30T06:23:18.225Z,98795.14
2022-10-30T06:25:44.675Z,98795.23
2022-10-30T06:28:11.622Z,98800.57
2022-10-30T06:30:38.237Z,98795.23
2022-10-30T06:33:06.235Z,98799.65
2022-10-30T06:35:32.875Z,98798.82
2022-10-30T06:37:59.672Z,98798.29
2022-10-30T06:40:27.703Z,98803.54
2022-10-30T06:42:54.448Z,98807.05
2022-10-30T06:45:23.439Z,98818.66
2022-10-30T06:47:50.494Z,98814.27
2022-10-30T06:50:20.336Z,98811.27
2022-10-30T06:52:46.856Z,98801.85
2022-10-30T06:55:13.388Z,98795.35
2022-10-30T06:57:40.035Z,98788.20
2022-10-30T07:00:07.904Z,98787.35
2022-10-30T07:02:35.059Z,98795.48
2022-10-30T07:05:01.569Z,98802.23
2022-10-30T07:07:28.751Z,98803.52
2022-10-30T07:09:55.294Z,98806.25
2022-10-30T07:12:21.724Z,98810.05
2022-10-30T07:14:48.170Z,98802.77
2022-10-30T07:17:14.706Z,98800.27
2022-10-30T07:19:41.250Z,98796.91
2022-10-30T07:22:07.697Z,98799.83
2022-10-30T07:24:34.226Z,98803.09
2022-10-30T07:27:00.670Z,98803.59
2022-10-30T07:29:27.206Z,98806.19
2022-10-30T07:32:08.322Z,98803.14
2022-10-30T07:34:35.033Z,98794.89
2022-10-30T07:37:01.625Z,98794.14
2022-10-30T07:39:28.103Z,98795.66
2022-10-30T07:41:54.661Z,98782.22
2022-10-30T07:44:21.083Z,98781.30
2022-10-30T07:46:47.828Z,98779.67
2022-10-30T07:49:14.478Z,98781.14
2022-10-30T07:51:41.010Z,98782.27
2022-10-30T07:54:07.551Z,98779.91
2022-10-30T07:56:34.097Z,98771.70
2022-10-30T07:59:00.636Z,98774.69
2022-10-30T08:01:27.180Z,98775.05
2022-10-30T08:03:53.818Z,98775.63
2022-10-30T08:06:23.218Z,98773.80
2022-10-30T08:08:53.144Z,98770.39
2022-10-30T08:11:19.690Z,98766.92
2022-10-30T08:13:46.425Z,98768.84
2022-10-30T08:16:12.877Z,98768.95
2022-10-30T08:18:39.414Z,98772.16
2022-10-30T08:21:06.051Z,98772.36
2022-10-30T08:23:32.472Z,98769.59
2022-10-30T08:25:59.027Z,98768.52
2022-10-30T08:28:29.897Z,98764.92
2022-10-30T08:31:00.721Z,98761.00
2022-10-30T08:33:27.170Z,98752.51
2022-10-30T08:35:56.272Z,98760.11
2022-10-30T08:38:23.020Z,98767.66
2022-10-30T08:40:49.499Z,98770.84
2022-10-30T08:43:16.685Z,98765.20
2022-10-30T08:45:43.638Z,98766.55
2022-10-30T08:48:12.355Z,98761.46
2022-10-30T08:50:38.868Z,98754.45
2022-10-30T08:53:07.385Z,98750.98
2022-10-30T08:55:34.934Z,98746.46
2022-10-30T08:58:02.121Z,98742.55
2022-10-30T09:00:29.913Z,98740.99
2022-10-30T09:02:57.022Z,98738.91
2022-10-30T09:05:24.048Z,98735.94
2022-10-30T09:07:56.719Z,98732.27
2022-10-30T09:10:23.943Z,98733.97
2022-10-30T09:12:58.308Z,98732.87
2022-10-30T09:15:26.132Z,98728.89
2022-10-30T09:18:03.252Z,98731.99
2022-10-30T09:20:31.045Z,98730.08
2022-10-30T09:22:58.391Z,98731.68
2022-10-30T09:25:25.459Z,98731.42
2022-10-30T09:27:51.898Z,98732.98
2022-10-30T09:30:18.437Z,98730.77
2022-10-30T09:32:44.979Z,98737.54
2022-10-30T09:35:11.623Z,98732.50
2022-10-30T09:37:39.470Z,98728.84
2022-10-30T09:40:07.882Z,98721.04
2022-10-30T09:42:42.437Z,98720.26
2022-10-30T09:45:29.792Z,98717.29
2022-10-30T09:48:22.283Z,98717.68
2022-10-30T09:50:51.587Z,98715.63
2022-10-30T09:53:33.833Z,98718.73
2022-10-30T09:56:34.430Z,98713.71
2022-10-30T09:59:17.765Z,98716.55
2022-10-30T10:01:52.603Z,98718.21
2022-10-30T10:04:31.228Z,98715.20
2022-10-30T10:07:07.600Z,98712.27
2022-10-30T10:09:36.322Z,98704.66
2022-10-30T10:12:08.057Z,98699.28
2022-10-30T10:14:39.665Z,98693.83
2022-10-30T10:17:13.835Z,98691.30
2022-10-30T10:19:57.507Z,98688.55
2022-10-30T10:22:39.496Z,98686.96
2022-10-30T10:25:12.666Z,98684.15
2022-10-30T10:27:57.538Z,98680.06
2022-10-30T10:30:26.648Z,98679.66
2022-10-30T10:33:15.103Z,98674.10
2022-10-30T10:36:00.074Z,98672.64
2022-10-30T10:38:50.354Z,98670.94
2022-10-30T10:41:25.501Z,98669.54
2022-10-30T10:44:10.664Z,98671.35
2022-10-30T10:47:09.393Z,98671.73
2022-10-30T10:50:23.736Z,98674.11
2022-10-30T10:52:57.893Z,98667.67
2022-10-30T10:55:35.385Z,98670.53
2022-10-30T10:58:13.152Z,98661.92
2022-10-30T11:00:41.003Z,98656.21
2022-10-30T11:06:18.189Z,98652.14
2022-10-30T11:08:45.137Z,98652.42
2022-10-30T11:11:11.745Z,98649.01
2022-10-30T11:13:41.350Z,98643.84
2022-10-30T11:16:30.521Z,98647.81
2022-10-30T11:19:03.722Z,98640.97
2022-10-30T11:21:42.019Z,98638.90
2022-10-30T11:24:31.707Z,98641.60
2022-10-30T11:27:16.161Z,98642.79
2022-10-30T11:29:49.284Z,98639.19
2022-10-30T11:32:20.296Z,98638.20
2022-10-30T11:34:46.960Z,98635.52
2022-10-30T11:37:33.225Z,98634.54
2022-10-30T11:40:08.299Z,98638.81
2022-10-30T11:42:36.235Z,98640.20
2022-10-30T11:45:04.739Z,98633.54
2022-10-30T11:47:37.633Z,98637.48
2022-10-30T11:50:26.210Z,98635.18
2022-10-30T11:52:57.729Z,98630.69
2022-10-30T11:55:34.721Z,98627.94
2022-10-30T11:58:02.252Z,98627.14
2022-10-30T12:00:32.921Z,98622.23
2022-10-30T12:03:01.241Z,98625.21
2022-10-30T12:05:38.456Z,98634.42
2022-10-30T12:08:07.702Z,98630.61
2022-10-30T12:10:41.167Z,98624.52
2022-10-30T12:13:16.037Z,98623.86
2022-10-30T12:15:44.644Z,98626.05
2022-10-30T12:20:58.689Z,98630.68
2022-10-30T12:23:27.583Z,98629.23
2022-10-30T12:26:11.698Z,98628.63
2022-10-30T12:28:39.503Z,98631.72
2022-10-30T12:31:12.878Z,98631.15
2022-10-30T12:33:51.017Z,98629.73
2022-10-30T12:36:21.683Z,98625.45
2022-10-30T12:38:48.086Z,98621.82
2022-10-30T12:41:43.611Z,98623.01
2022-10-30T12:44:29.365Z,98618.59
2022-10-30T12:47:27.174Z,98619.03
2022-10-30T12:50:18.646Z,98618.73
2022-10-30T12:53:06.166Z,98615.64
2022-10-30T12:55:48.024Z,98612.11
2022-10-30T12:58:19.832Z,98612.45
2022-10-30T13:00:54.735Z,98613.25
2022-10-30T13:03:32.769Z,98616.70
2022-10-30T13:06:08.383Z,98614.00
2022-10-30T13:08:39.888Z,98618.85
2022-10-30T13:11:25.321Z,98619.34
2022-10-30T13:13:55.352Z,98623.41
2022-10-30T13:16:32.228Z,98622.38
2022-10-30T13:19:03.184Z,98621.49
2022-10-30T13:21:56.230Z,98617.45
2022-10-30T13:24:57.904Z,98609.37
2022-10-30T13:27:51.775Z,98609.40
2022-10-30T13:30:23.385Z,98606.35
2022-10-30T13:33:20.305Z,98608.52
2022-10-30T13:36:01.930Z,98609.99
2022-10-30T13:38:46.818Z,98604.64
2022-10-30T13:41:40.997Z,98606.64
2022-10-30T13:44:16.536Z,98609.06
2022-10-30T13:47:03.200Z,98608.45
2022-10-30T13:49:41.722Z,98605.48
2022-10-30T13:52:16.660Z,98607.92
2022-10-30T13:55:19.351Z,98603.22
2022-10-30T13:57:56.540Z,98608.69
2022-10-30T14:00:45.575Z,98608.40
2022-10-30T14:03:22.627Z,98609.14
2022-10-30T14:05:54.048Z,98609.42
2022-10-30T14:08:25.842Z,98610.92
2022-10-30T14:10:59.350Z,98615.55
2022-10-30T14:13:44.076Z,98618.89
2022-10-30T14:16:36.523Z,98622.86
2022-10-30T14:19:04.390Z,98622.40
2022-10-30T14:21:44.696Z,98631.74
2022-10-30T14:24:29.496Z,98627.70
2022-10-30T14:27:05.485Z,98627.11
2022-10-30T14:29:34.858Z,98628.71
2022-10-30T14:32:02.095Z,98629.22
2022-10-30T14:35:01.249Z,98625.46
2022-10-30T14:37:27.687Z,98627.76
2022-10-30T14:39:55.762Z,98632.41
2022-10-30T14:42:51.183Z,98635.32
2022-10-30T14:45:29.498Z,98636.11
2022-10-30T14:48:27.272Z,98633.26
2022-10-30T14:51:12.553Z,98630.91
2022-10-30T14:53:52.094Z,98633.02
2022-10-30T14:56:29.694Z,98631.73
2022-10-30T14:59:09.837Z,98634.17
2022-10-30T15:01:45.486Z,98631.73
2022-10-30T15:04:18.392Z,98628.56
2022-10-30T15:07:13.067Z,98629.19
2022-10-30T15:10:03.022Z,98626.93
2022-10-30T15:13:03.359Z,98624.51
2022-10-30T15:15:30.674Z,98625.11
2022-10-30T15:18:01.468Z,98621.14
2022-10-30T15:20:32.146Z,98616.30
2022-10-30T15:23:03.030Z,98618.73
2022-10-30T15:25:34.583Z,98618.33
2022-10-30T15:28:01.449Z,98620.48
2022-10-30T15:30:28.466Z,98619.98
2022-10-30T15:32:55.196Z,98620.89
2022-10-30T15:35:27.355Z,98618.92
2022-10-30T15:38:07.767Z,98620.04
2022-10-30T15:40:36.327Z,98620.90
2022-10-30T15:43:05.389Z,98623.91
2022-10-30T15:45:37.338Z,98628.33
2022-10-30T15:48:19.446Z,98625.10
2022-10-30T15:51:00.893Z,98621.19
2022-10-30T15:53:36.461Z,98618.73
2022-10-30T15:56:04.584Z,98616.45
2022-10-30T15:58:34.960Z,98618.02
2022-10-30T16:01:02.257Z,98622.94
2022-10-30T16:03:29.878Z,98628.23
2022-10-30T16:06:15.369Z,98630.86
2022-10-30T16:08:48.147Z,98633.64
2022-10-30T16:11:15.824Z,98634.89
2022-10-30T16:13:42.774Z,98643.96
2022-10-30T16:16:17.435Z,98643.38
2022-10-30T16:18:44.260Z,98643.86
2022-10-30T16:21:15.928Z,98643.40
2022-10-30T16:23:52.171Z,98646.24
2022-10-30T16:26:27.620Z,98646.00
2022-10-30T16:28:54.161Z,98648.24
2022-10-30T16:31:21.020Z,98647.77
2022-10-30T16:33:48.772Z,98644.58
2022-10-30T16:36:17.771Z,98643.81
2022-10-30T16:38:47.488Z,98643.27
2022-10-30T16:41:14.666Z,98645.77
2022-10-30T16:43:43.478Z,98652.73
2022-10-30T16:46:16.131Z,98656.02
2022-10-30T16:48:57.980Z,98653.10
2022-10-30T16:51:24.774Z,98649.10
2022-10-30T16:53:52.947Z,98649.19
2022-10-30T16:56:24.299Z,98648.55
2022-10-30T16:58:53.426Z,98648.13
2022-10-30T17:01:26.123Z,98646.87
2022-10-30T17:03:54.376Z,98646.88
2022-10-30T17:06:42.435Z,98649.34
2022-10-30T17:09:19.803Z,98654.16
2022-10-30T17:12:00.483Z,98663.05
2022-10-30T17:14:27.013Z,98667.27
2022-10-30T17:16:56.118Z,98668.48
2022-10-30T17:19:32.014Z,98671.80
2022-10-30T17:22:02.215Z,98674.61
2022-10-30T17:24:33.147Z,98672.80
2022-10-30T17:27:02.349Z,98673.38
2022-10-30T17:29:38.146Z,98671.34
2022-10-30T17:32:06.597Z,98671.26
2022-10-30T17:34:39.040Z,98672.26
2022-10-30T17:37:05.458Z,98676.62
2022-10-30T17:39:31.914Z,98672.67
2022-10-30T17:41:58.382Z,98670.98
2022-10-30T17:44:26.265Z,98671.93
2022-10-30T17:46:53.003Z,98672.36
2022-10-30T17:49:26.745Z,98672.58
2022-10-30T17:51:53.590Z,98673.88
2022-10-30T17:54:20.919Z,98676.30
2022-10-30T17:56:47.669Z,98681.55
2022-10-30T17:59:14.714Z,98681.72
2022-10-30T18:01:41.852Z,98685.81
2022-10-30T18:04:21.324Z,98688.84
2022-10-30T18:06:48.724Z,98686.20
2022-10-30T18:09:15.259Z,98686.86
2022-10-30T18:11:41.864Z,98686.59
2022-10-30T18:14:11.310Z,98686.52
2022-10-30T18:16:38.737Z,98684.84
2022-10-30T18:19:10.554Z,98688.62
2022-10-30T18:21:37.240Z,98694.15
2022-10-30T18:24:10.498Z,98691.48
2022-10-30T18:26:40.448Z,98685.78
2022-10-30T18:29:08.752Z,98688.09
2022-10-30T18:31:36.408Z,98690.14
2022-10-30T18:34:03.583Z,98689.27
2022-10-30T18:36:30.318Z,98691.73
2022-10-30T18:38:56.853Z,98692.41
2022-10-30T18:41:36.632Z,98689.73
2022-10-30T18:44:04.109Z,98696.84
2022-10-30T18:46:31.623Z,98697.20
2022-10-30T18:48:58.268Z,98695.61
2022-10-30T18:51:27.094Z,98697.23
2022-10-30T18:53:54.229Z,98700.84
2022-10-30T18:56:24.397Z,98705.28
2022-10-30T18:58:54.925Z,98704.48
2022-10-30T19:01:25.877Z,98701.86
2022-10-30T19:03:52.967Z,98706.88
2022-10-30T19:06:22.281Z,98705.33
2022-10-30T19:08:49.257Z,98701.73
2022-10-30T19:11:24.028Z,98698.71
2022-10-30T19:13:52.557Z,98702.25
2022-10-30T19:16:20.500Z,98697.70
2022-10-30T19:18:47.561Z,98696.42
2022-10-30T19:21:25.531Z,98695.15
2022-10-30T19:23:52.832Z,98697.48
2022-10-30T19:26:19.320Z,98696.85
2022-10-30T19:28:46.121Z,98700.77
2022-10-30T19:31:18.702Z,98703.91
2022-10-30T19:33:46.469Z,98703.00
2022-10-30T19:36:30.522Z,98704.20
2022-10-30T19:38:57.522Z,98705.27
2022-10-30T19:41:24.232Z,98704.66
2022-10-30T19:43:50.891Z,98701.19
2022-10-30T19:46:17.501Z,98700.37
2022-10-30T19:49:00.124Z,98702.48
2022-10-30T19:51:28.684Z,98697.77
2022-10-30T19:53:55.451Z,98698.97
2022-10-30T19:56:22.423Z,98704.36
2022-10-30T19:58:49.760Z,98701.88
2022-10-30T20:01:17.090Z,98702.87
2022-10-30T20:03:43.993Z,98703.58
2022-10-30T20:06:14.978Z,98703.59
2022-10-30T20:08:41.772Z,98704.65
2022-10-30T20:11:08.820Z,98703.70
2022-10-30T20:13:35.808Z,98708.48
2022-10-30T20:16:02.742Z,98708.67
2022-10-30T20:18:31.885Z,98709.15
2022-10-30T20:21:01.667Z,98706.92
2022-10-30T20:23:28.896Z,98706.27
2022-10-30T20:26:00.836Z,98706.66
2022-10-30T20:28:40.380Z,98703.98
2022-10-30T20:31:08.489Z,98702.64
2022-10-30T20:33:35.225Z,98702.25
2022-10-30T20:36:01.885Z,98707.85
2022-10-30T20:38:32.504Z,98706.88
2022-10-30T20:41:00.996Z,98707.91
2022-10-30T20:43:30.398Z,98708.44
2022-10-30T20:45:57.790Z,98710.52
2022-10-30T20:48:24.700Z,98709.55
2022-10-30T20:50:59.986Z,98712.16
2022-10-30T20:53:27.150Z,98708.63
2022-10-30T20:55:53.746Z,98707.81
2022-10-30T20:58:21.429Z,98707.98
2022-10-30T21:00:48.214Z,98711.92
2022-10-30T21:03:15.109Z,98711.06
2022-10-30T21:05:44.779Z,98709.84
2022-10-30T21:08:13.040Z,98711.61
2022-10-30T21:10:40.163Z,98715.95
2022-10-30T21:13:09.477Z,98718.77
2022-10-30T21:15:41.616Z,98720.36
2022-10-30T21:18:08.968Z,98719.33
2022-10-30T21:20:36.371Z,98717.53
2022-10-30T21:23:03.008Z,98719.08
2022-10-30T21:25:29.619Z,98717.27
2022-10-30T21:27:57.119Z,98714.52
2022-10-30T21:30:24.073Z,98716.48
2022-10-30T21:32:50.610Z,98718.02
2022-10-30T21:35:17.350Z,98716.65
2022-10-30T21:37:43.893Z,98712.44
2022-10-30T21:40:11.048Z,98715.10
2022-10-30T21:42:37.492Z,98713.41
2022-10-30T21:45:04.846Z,98713.69
2022-10-30T21:47:31.386Z,98718.50
2022-10-30T21:49:57.930Z,98718.55
2022-10-30T21:52:24.474Z,98716.97
2022-10-30T21:54:50.962Z,98715.00
2022-10-30T21:57:17.448Z,98712.60
2022-10-30T21:59:43.940Z,98711.57
2022-10-30T22:02:14.672Z,98711.66
2022-10-30T22:04:41.194Z,98712.21
2022-10-30T22:07:07.920Z,98712.73
2022-10-30T22:09:34.555Z,98712.23
2022-10-30T22:12:00.984Z,98713.52
2022-10-30T22:14:27.550Z,98711.76
2022-10-30T22:16:54.054Z,98713.07
2022-10-30T22:19:20.527Z,98709.48
2022-10-30T22:21:46.959Z,98712.91
2022-10-30T22:24:13.444Z,98712.89
2022-10-30T22:26:39.940Z,98712.17
2022-10-30T22:29:06.396Z,98709.73
2022-10-30T22:31:33.037Z,98709.81
2022-10-30T22:34:01.103Z,98707.90
2022-10-30T22:36:30.194Z,98710.54
2022-10-30T22:39:02.093Z,98709.34
2022-10-30T22:41:34.523Z,98712.52
2022-10-30T22:44:06.046Z,98708.44
2022-10-30T22:46:32.540Z,98707.89
2022-10-30T22:48:59.713Z,98706.95
2022-10-30T22:51:26.640Z,98708.52
2022-10-30T22:53:59.741Z,98708.10
2022-10-30T22:56:29.448Z,98709.79
2022-10-30T22:58:56.341Z,98712.32
2022-10-30T23:01:28.692Z,98711.13
2022-10-30T23:03:57.296Z,98710.08
2022-10-30T23:06:24.419Z,98712.40
2022-10-30T23:08:56.380Z,98710.91
2022-10-30T23:11:23.956Z,98713.36
2022-10-30T23:13:50.493Z,98714.44
2022-10-30T23:16:20.418Z,98715.66
2022-10-30T23:18:47.828Z,98718.80
2022-10-30T23:21:20.786Z,98719.81
2022-10-30T23:23:48.120Z,98720.70
2022-10-30T23:26:16.028Z,98723.91
2022-10-30T23:28:43.055Z,98721.80
2022-10-30T23:31:23.616Z,98725.55
2022-10-30T23:33:52.938Z,98722.17
2022-10-30T23:36:20.809Z,98722.92
2022-10-30T23:38:54.943Z,98723.86
2022-10-30T23:41:23.399Z,98720.96
2022-10-30T23:43:57.105Z,98718.67
2022-10-30T23:46:24.266Z,98717.48
2022-10-30T23:48:51.314Z,98719.83
2022-10-30T23:51:18.609Z,98720.69
2022-10-30T23:53:45.117Z,98720.69
2022-10-30T23:56:12.169Z,98720.90
2022-10-30T23:58:38.890Z,98724.88
